sensor_id;sensor_type;location;lat;lon;timestamp;P1;durP1;ratioP1;P2;durP2;ratioP2
11960;SDS011;6040;49.358;11.140;2022-11-24T00:01:50;7.63;;;4.80;;
11960;SDS011;6040;49.358;11.140;2022-11-24T00:04:18;4.93;;;4.43;;
11960;SDS011;6040;49.358;11.140;2022-11-24T00:06:45;5.67;;;4.77;;
11960;SDS011;6040;49.358;11.140;2022-11-24T00:09:12;5.30;;;4.80;;
11960;SDS011;6040;49.358;11.140;2022-11-24T00:11:39;6.20;;;5.20;;
11960;SDS011;6040;49.358;11.140;2022-11-24T00:14:06;6.20;;;4.93;;
11960;SDS011;6040;49.358;11.140;2022-11-24T00:16:34;6.47;;;4.70;;
11960;SDS011;6040;49.358;11.140;2022-11-24T00:19:02;6.63;;;4.70;;
11960;SDS011;6040;49.358;11.140;2022-11-24T00:21:33;6.17;;;5.27;;
11960;SDS011;6040;49.358;11.140;2022-11-24T00:24:01;6.63;;;4.80;;
11960;SDS011;6040;49.358;11.140;2022-11-24T00:26:28;6.50;;;5.33;;
11960;SDS011;6040;49.358;11.140;2022-11-24T00:28:57;6.63;;;5.10;;
11960;SDS011;6040;49.358;11.140;2022-11-24T00:31:26;6.23;;;4.70;;
11960;SDS011;6040;49.358;11.140;2022-11-24T00:33:54;6.47;;;5.17;;
11960;SDS011;6040;49.358;11.140;2022-11-24T00:36:23;5.93;;;4.43;;
11960;SDS011;6040;49.358;11.140;2022-11-24T00:38:53;7.10;;;4.97;;
11960;SDS011;6040;49.358;11.140;2022-11-24T00:41:20;5.67;;;4.80;;
11960;SDS011;6040;49.358;11.140;2022-11-24T00:43:48;7.37;;;4.90;;
11960;SDS011;6040;49.358;11.140;2022-11-24T00:46:15;7.70;;;5.03;;
11960;SDS011;6040;49.358;11.140;2022-11-24T00:48:42;5.90;;;4.80;;
11960;SDS011;6040;49.358;11.140;2022-11-24T00:51:09;8.93;;;5.20;;
11960;SDS011;6040;49.358;11.140;2022-11-24T00:53:38;8.03;;;5.70;;
11960;SDS011;6040;49.358;11.140;2022-11-24T00:56:06;6.53;;;4.83;;
11960;SDS011;6040;49.358;11.140;2022-11-24T00:58:34;7.60;;;4.83;;
11960;SDS011;6040;49.358;11.140;2022-11-24T01:01:02;6.90;;;4.73;;
11960;SDS011;6040;49.358;11.140;2022-11-24T01:03:31;6.43;;;4.70;;
11960;SDS011;6040;49.358;11.140;2022-11-24T01:06:01;6.03;;;4.23;;
11960;SDS011;6040;49.358;11.140;2022-11-24T01:08:29;7.30;;;4.47;;
11960;SDS011;6040;49.358;11.140;2022-11-24T01:11:04;6.37;;;4.93;;
11960;SDS011;6040;49.358;11.140;2022-11-24T01:13:34;8.53;;;4.70;;
11960;SDS011;6040;49.358;11.140;2022-11-24T01:16:01;13.50;;;5.00;;
11960;SDS011;6040;49.358;11.140;2022-11-24T01:18:27;6.20;;;4.40;;
11960;SDS011;6040;49.358;11.140;2022-11-24T01:20:54;5.77;;;4.03;;
11960;SDS011;6040;49.358;11.140;2022-11-24T01:23:21;8.00;;;4.37;;
11960;SDS011;6040;49.358;11.140;2022-11-24T01:25:48;15.53;;;4.50;;
11960;SDS011;6040;49.358;11.140;2022-11-24T01:28:16;7.10;;;4.43;;
11960;SDS011;6040;49.358;11.140;2022-11-24T01:30:43;12.73;;;4.67;;
11960;SDS011;6040;49.358;11.140;2022-11-24T01:33:11;17.87;;;4.30;;
11960;SDS011;6040;49.358;11.140;2022-11-24T01:35:38;9.47;;;4.10;;
11960;SDS011;6040;49.358;11.140;2022-11-24T01:38:05;10.20;;;4.43;;
11960;SDS011;6040;49.358;11.140;2022-11-24T01:40:31;13.53;;;4.07;;
11960;SDS011;6040;49.358;11.140;2022-11-24T01:42:58;8.13;;;4.17;;
11960;SDS011;6040;49.358;11.140;2022-11-24T01:45:34;8.30;;;3.90;;
11960;SDS011;6040;49.358;11.140;2022-11-24T01:48:05;9.03;;;3.87;;
11960;SDS011;6040;49.358;11.140;2022-11-24T01:50:37;10.13;;;3.97;;
11960;SDS011;6040;49.358;11.140;2022-11-24T01:53:05;6.23;;;3.70;;
11960;SDS011;6040;49.358;11.140;2022-11-24T01:55:33;10.07;;;3.93;;
11960;SDS011;6040;49.358;11.140;2022-11-24T01:58:03;7.87;;;3.60;;
11960;SDS011;6040;49.358;11.140;2022-11-24T02:00:33;7.33;;;3.80;;
11960;SDS011;6040;49.358;11.140;2022-11-24T02:03:03;9.60;;;3.67;;
11960;SDS011;6040;49.358;11.140;2022-11-24T02:05:31;5.80;;;3.90;;
11960;SDS011;6040;49.358;11.140;2022-11-24T02:08:03;5.43;;;3.83;;
11960;SDS011;6040;49.358;11.140;2022-11-24T02:10:34;8.47;;;4.30;;
11960;SDS011;6040;49.358;11.140;2022-11-24T02:13:02;7.37;;;3.83;;
11960;SDS011;6040;49.358;11.140;2022-11-24T02:15:29;9.17;;;3.73;;
11960;SDS011;6040;49.358;11.140;2022-11-24T02:17:58;7.13;;;3.97;;
11960;SDS011;6040;49.358;11.140;2022-11-24T02:20:25;10.13;;;4.30;;
11960;SDS011;6040;49.358;11.140;2022-11-24T02:22:53;6.13;;;3.97;;
11960;SDS011;6040;49.358;11.140;2022-11-24T02:25:28;5.13;;;3.70;;
11960;SDS011;6040;49.358;11.140;2022-11-24T02:28:02;13.93;;;4.70;;
11960;SDS011;6040;49.358;11.140;2022-11-24T02:30:33;8.90;;;4.00;;
11960;SDS011;6040;49.358;11.140;2022-11-24T02:33:00;7.20;;;3.73;;
11960;SDS011;6040;49.358;11.140;2022-11-24T02:35:27;12.20;;;4.50;;
11960;SDS011;6040;49.358;11.140;2022-11-24T02:37:54;5.57;;;4.07;;
11960;SDS011;6040;49.358;11.140;2022-11-24T02:40:22;10.50;;;4.00;;
11960;SDS011;6040;49.358;11.140;2022-11-24T02:42:52;11.50;;;3.77;;
11960;SDS011;6040;49.358;11.140;2022-11-24T02:45:22;12.37;;;4.00;;
11960;SDS011;6040;49.358;11.140;2022-11-24T02:47:51;9.37;;;4.40;;
11960;SDS011;6040;49.358;11.140;2022-11-24T02:50:18;10.13;;;4.00;;
11960;SDS011;6040;49.358;11.140;2022-11-24T02:52:45;7.27;;;3.93;;
11960;SDS011;6040;49.358;11.140;2022-11-24T02:55:12;11.17;;;4.10;;
11960;SDS011;6040;49.358;11.140;2022-11-24T02:57:38;14.03;;;4.17;;
11960;SDS011;6040;49.358;11.140;2022-11-24T03:00:06;14.10;;;4.17;;
11960;SDS011;6040;49.358;11.140;2022-11-24T03:02:35;11.53;;;3.97;;
11960;SDS011;6040;49.358;11.140;2022-11-24T03:05:02;10.90;;;3.93;;
11960;SDS011;6040;49.358;11.140;2022-11-24T03:07:29;12.20;;;4.80;;
11960;SDS011;6040;49.358;11.140;2022-11-24T03:09:56;15.80;;;4.37;;
11960;SDS011;6040;49.358;11.140;2022-11-24T03:12:23;13.30;;;3.87;;
11960;SDS011;6040;49.358;11.140;2022-11-24T03:14:50;8.67;;;4.03;;
11960;SDS011;6040;49.358;11.140;2022-11-24T03:17:17;10.63;;;4.00;;
11960;SDS011;6040;49.358;11.140;2022-11-24T03:19:45;10.97;;;4.30;;
11960;SDS011;6040;49.358;11.140;2022-11-24T03:22:12;9.10;;;3.80;;
11960;SDS011;6040;49.358;11.140;2022-11-24T03:24:38;8.33;;;3.77;;
11960;SDS011;6040;49.358;11.140;2022-11-24T03:27:05;7.20;;;3.70;;
11960;SDS011;6040;49.358;11.140;2022-11-24T03:29:32;9.93;;;3.70;;
11960;SDS011;6040;49.358;11.140;2022-11-24T03:31:59;9.30;;;4.13;;
11960;SDS011;6040;49.358;11.140;2022-11-24T03:34:26;13.33;;;3.63;;
11960;SDS011;6040;49.358;11.140;2022-11-24T03:36:54;10.70;;;3.93;;
11960;SDS011;6040;49.358;11.140;2022-11-24T03:39:22;13.53;;;3.93;;
11960;SDS011;6040;49.358;11.140;2022-11-24T03:41:49;14.80;;;3.90;;
11960;SDS011;6040;49.358;11.140;2022-11-24T03:44:16;14.57;;;4.03;;
11960;SDS011;6040;49.358;11.140;2022-11-24T03:46:43;9.87;;;3.70;;
11960;SDS011;6040;49.358;11.140;2022-11-24T03:49:10;11.33;;;3.57;;
11960;SDS011;6040;49.358;11.140;2022-11-24T03:51:37;10.30;;;3.80;;
11960;SDS011;6040;49.358;11.140;2022-11-24T03:54:05;10.87;;;4.07;;
11960;SDS011;6040;49.358;11.140;2022-11-24T03:56:32;13.40;;;3.80;;
11960;SDS011;6040;49.358;11.140;2022-11-24T03:58:59;7.80;;;3.63;;
11960;SDS011;6040;49.358;11.140;2022-11-24T04:01:26;9.93;;;3.37;;
11960;SDS011;6040;49.358;11.140;2022-11-24T04:03:52;9.77;;;3.70;;
11960;SDS011;6040;49.358;11.140;2022-11-24T04:06:19;20.07;;;4.03;;
11960;SDS011;6040;49.358;11.140;2022-11-24T04:08:46;10.83;;;4.20;;
11960;SDS011;6040;49.358;11.140;2022-11-24T04:11:14;18.30;;;4.33;;
11960;SDS011;6040;49.358;11.140;2022-11-24T04:13:55;12.20;;;3.80;;
11960;SDS011;6040;49.358;11.140;2022-11-24T04:16:22;12.33;;;3.77;;
11960;SDS011;6040;49.358;11.140;2022-11-24T04:18:50;13.70;;;4.00;;
11960;SDS011;6040;49.358;11.140;2022-11-24T04:21:17;8.13;;;3.57;;
11960;SDS011;6040;49.358;11.140;2022-11-24T04:23:44;7.60;;;3.63;;
11960;SDS011;6040;49.358;11.140;2022-11-24T04:26:10;10.43;;;3.90;;
11960;SDS011;6040;49.358;11.140;2022-11-24T04:28:39;10.97;;;3.90;;
11960;SDS011;6040;49.358;11.140;2022-11-24T04:31:06;9.63;;;3.63;;
11960;SDS011;6040;49.358;11.140;2022-11-24T04:33:33;10.23;;;3.40;;
11960;SDS011;6040;49.358;11.140;2022-11-24T04:35:59;8.13;;;3.33;;
11960;SDS011;6040;49.358;11.140;2022-11-24T04:38:26;13.93;;;3.70;;
11960;SDS011;6040;49.358;11.140;2022-11-24T04:40:53;12.20;;;4.03;;
11960;SDS011;6040;49.358;11.140;2022-11-24T04:43:20;11.03;;;3.60;;
11960;SDS011;6040;49.358;11.140;2022-11-24T04:45:48;11.23;;;3.53;;
11960;SDS011;6040;49.358;11.140;2022-11-24T04:48:15;7.63;;;3.70;;
11960;SDS011;6040;49.358;11.140;2022-11-24T04:50:42;11.33;;;3.40;;
11960;SDS011;6040;49.358;11.140;2022-11-24T04:53:09;9.50;;;3.40;;
11960;SDS011;6040;49.358;11.140;2022-11-24T04:55:37;8.70;;;3.17;;
11960;SDS011;6040;49.358;11.140;2022-11-24T04:58:05;7.30;;;3.10;;
11960;SDS011;6040;49.358;11.140;2022-11-24T05:00:33;9.43;;;3.90;;
11960;SDS011;6040;49.358;11.140;2022-11-24T05:03:01;14.13;;;3.60;;
11960;SDS011;6040;49.358;11.140;2022-11-24T05:05:29;14.13;;;3.33;;
11960;SDS011;6040;49.358;11.140;2022-11-24T05:07:57;13.27;;;4.03;;
11960;SDS011;6040;49.358;11.140;2022-11-24T05:10:24;12.37;;;4.03;;
11960;SDS011;6040;49.358;11.140;2022-11-24T05:13:01;12.93;;;4.03;;
11960;SDS011;6040;49.358;11.140;2022-11-24T05:15:29;14.87;;;4.10;;
11960;SDS011;6040;49.358;11.140;2022-11-24T05:17:56;14.77;;;5.60;;
11960;SDS011;6040;49.358;11.140;2022-11-24T05:20:25;12.80;;;5.07;;
11960;SDS011;6040;49.358;11.140;2022-11-24T05:22:52;12.00;;;4.57;;
11960;SDS011;6040;49.358;11.140;2022-11-24T05:25:18;11.03;;;4.10;;
11960;SDS011;6040;49.358;11.140;2022-11-24T05:27:45;16.77;;;4.27;;
11960;SDS011;6040;49.358;11.140;2022-11-24T05:30:13;9.70;;;3.90;;
11960;SDS011;6040;49.358;11.140;2022-11-24T05:32:40;17.63;;;4.17;;
11960;SDS011;6040;49.358;11.140;2022-11-24T05:35:08;16.20;;;4.03;;
11960;SDS011;6040;49.358;11.140;2022-11-24T05:37:36;15.03;;;3.43;;
11960;SDS011;6040;49.358;11.140;2022-11-24T05:40:04;13.87;;;3.73;;
11960;SDS011;6040;49.358;11.140;2022-11-24T05:42:32;14.37;;;3.63;;
11960;SDS011;6040;49.358;11.140;2022-11-24T05:45:08;14.97;;;3.47;;
11960;SDS011;6040;49.358;11.140;2022-11-24T05:47:37;13.47;;;3.67;;
11960;SDS011;6040;49.358;11.140;2022-11-24T05:50:05;15.33;;;3.43;;
11960;SDS011;6040;49.358;11.140;2022-11-24T05:52:33;10.87;;;3.97;;
11960;SDS011;6040;49.358;11.140;2022-11-24T05:55:01;10.83;;;4.23;;
11960;SDS011;6040;49.358;11.140;2022-11-24T05:57:29;11.60;;;3.63;;
11960;SDS011;6040;49.358;11.140;2022-11-24T05:59:56;9.20;;;3.27;;
11960;SDS011;6040;49.358;11.140;2022-11-24T06:02:23;14.40;;;3.60;;
11960;SDS011;6040;49.358;11.140;2022-11-24T06:04:50;11.57;;;3.20;;
11960;SDS011;6040;49.358;11.140;2022-11-24T06:07:16;9.70;;;3.33;;
11960;SDS011;6040;49.358;11.140;2022-11-24T06:09:44;8.87;;;2.83;;
11960;SDS011;6040;49.358;11.140;2022-11-24T06:12:12;9.07;;;2.93;;
11960;SDS011;6040;49.358;11.140;2022-11-24T06:14:39;15.33;;;3.40;;
11960;SDS011;6040;49.358;11.140;2022-11-24T06:17:06;11.57;;;3.17;;
11960;SDS011;6040;49.358;11.140;2022-11-24T06:19:34;15.23;;;4.00;;
11960;SDS011;6040;49.358;11.140;2022-11-24T06:22:01;11.47;;;4.10;;
11960;SDS011;6040;49.358;11.140;2022-11-24T06:24:28;16.30;;;5.17;;
11960;SDS011;6040;49.358;11.140;2022-11-24T06:26:55;22.33;;;4.80;;
11960;SDS011;6040;49.358;11.140;2022-11-24T06:29:23;7.47;;;3.37;;
11960;SDS011;6040;49.358;11.140;2022-11-24T06:31:50;12.63;;;3.30;;
11960;SDS011;6040;49.358;11.140;2022-11-24T06:34:17;14.77;;;3.77;;
11960;SDS011;6040;49.358;11.140;2022-11-24T06:36:44;13.07;;;3.27;;
11960;SDS011;6040;49.358;11.140;2022-11-24T06:39:11;7.73;;;3.20;;
11960;SDS011;6040;49.358;11.140;2022-11-24T06:41:37;13.23;;;2.97;;
11960;SDS011;6040;49.358;11.140;2022-11-24T06:44:04;8.80;;;3.17;;
11960;SDS011;6040;49.358;11.140;2022-11-24T06:46:32;7.30;;;2.80;;
11960;SDS011;6040;49.358;11.140;2022-11-24T06:48:59;7.77;;;2.90;;
11960;SDS011;6040;49.358;11.140;2022-11-24T06:51:26;11.90;;;2.50;;
11960;SDS011;6040;49.358;11.140;2022-11-24T06:53:53;10.47;;;3.30;;
11960;SDS011;6040;49.358;11.140;2022-11-24T06:56:20;8.73;;;3.07;;
11960;SDS011;6040;49.358;11.140;2022-11-24T06:58:47;6.40;;;2.73;;
11960;SDS011;6040;49.358;11.140;2022-11-24T07:01:15;10.23;;;3.27;;
11960;SDS011;6040;49.358;11.140;2022-11-24T07:03:44;10.47;;;3.03;;
11960;SDS011;6040;49.358;11.140;2022-11-24T07:06:12;6.80;;;2.97;;
11960;SDS011;6040;49.358;11.140;2022-11-24T07:08:38;6.73;;;2.80;;
11960;SDS011;6040;49.358;11.140;2022-11-24T07:11:06;8.57;;;3.07;;
11960;SDS011;6040;49.358;11.140;2022-11-24T07:13:34;6.73;;;2.73;;
11960;SDS011;6040;49.358;11.140;2022-11-24T07:16:08;12.93;;;3.00;;
11960;SDS011;6040;49.358;11.140;2022-11-24T07:18:37;10.60;;;2.67;;
11960;SDS011;6040;49.358;11.140;2022-11-24T07:21:05;9.03;;;2.93;;
11960;SDS011;6040;49.358;11.140;2022-11-24T07:23:32;8.60;;;2.80;;
11960;SDS011;6040;49.358;11.140;2022-11-24T07:26:00;9.20;;;2.50;;
11960;SDS011;6040;49.358;11.140;2022-11-24T07:28:28;7.93;;;2.67;;
11960;SDS011;6040;49.358;11.140;2022-11-24T07:30:55;11.87;;;2.97;;
11960;SDS011;6040;49.358;11.140;2022-11-24T07:33:22;8.23;;;2.70;;
11960;SDS011;6040;49.358;11.140;2022-11-24T07:35:50;10.50;;;2.90;;
11960;SDS011;6040;49.358;11.140;2022-11-24T07:38:18;6.70;;;2.40;;
11960;SDS011;6040;49.358;11.140;2022-11-24T07:40:45;9.33;;;2.53;;
11960;SDS011;6040;49.358;11.140;2022-11-24T07:43:12;8.57;;;2.43;;
11960;SDS011;6040;49.358;11.140;2022-11-24T07:45:39;7.77;;;2.60;;
11960;SDS011;6040;49.358;11.140;2022-11-24T07:48:06;6.87;;;2.87;;
11960;SDS011;6040;49.358;11.140;2022-11-24T07:50:34;8.30;;;2.50;;
11960;SDS011;6040;49.358;11.140;2022-11-24T07:53:01;10.00;;;2.80;;
11960;SDS011;6040;49.358;11.140;2022-11-24T07:55:30;10.27;;;2.97;;
11960;SDS011;6040;49.358;11.140;2022-11-24T07:58:00;7.03;;;2.67;;
11960;SDS011;6040;49.358;11.140;2022-11-24T08:00:27;14.83;;;3.20;;
11960;SDS011;6040;49.358;11.140;2022-11-24T08:02:54;11.80;;;3.13;;
11960;SDS011;6040;49.358;11.140;2022-11-24T08:05:20;8.70;;;2.40;;
11960;SDS011;6040;49.358;11.140;2022-11-24T08:07:47;9.40;;;3.03;;
11960;SDS011;6040;49.358;11.140;2022-11-24T08:10:14;9.57;;;2.73;;
11960;SDS011;6040;49.358;11.140;2022-11-24T08:12:43;8.47;;;2.83;;
11960;SDS011;6040;49.358;11.140;2022-11-24T08:15:10;7.73;;;2.67;;
11960;SDS011;6040;49.358;11.140;2022-11-24T08:17:37;6.03;;;2.63;;
11960;SDS011;6040;49.358;11.140;2022-11-24T08:20:04;10.00;;;2.93;;
11960;SDS011;6040;49.358;11.140;2022-11-24T08:22:32;6.70;;;2.53;;
11960;SDS011;6040;49.358;11.140;2022-11-24T08:24:59;7.27;;;2.80;;
11960;SDS011;6040;49.358;11.140;2022-11-24T08:27:26;9.03;;;2.60;;
11960;SDS011;6040;49.358;11.140;2022-11-24T08:29:56;11.37;;;2.70;;
11960;SDS011;6040;49.358;11.140;2022-11-24T08:32:23;6.00;;;2.57;;
11960;SDS011;6040;49.358;11.140;2022-11-24T08:34:50;6.93;;;2.77;;
11960;SDS011;6040;49.358;11.140;2022-11-24T08:37:16;7.83;;;2.50;;
11960;SDS011;6040;49.358;11.140;2022-11-24T08:39:43;5.07;;;2.50;;
11960;SDS011;6040;49.358;11.140;2022-11-24T08:42:10;5.23;;;2.37;;
11960;SDS011;6040;49.358;11.140;2022-11-24T08:44:37;5.20;;;2.30;;
11960;SDS011;6040;49.358;11.140;2022-11-24T08:47:05;6.70;;;2.87;;
11960;SDS011;6040;49.358;11.140;2022-11-24T08:49:32;6.83;;;2.70;;
11960;SDS011;6040;49.358;11.140;2022-11-24T08:51:59;7.07;;;2.30;;
11960;SDS011;6040;49.358;11.140;2022-11-24T08:54:26;9.27;;;2.80;;
11960;SDS011;6040;49.358;11.140;2022-11-24T08:56:52;8.87;;;2.80;;
11960;SDS011;6040;49.358;11.140;2022-11-24T08:59:19;6.67;;;2.70;;
11960;SDS011;6040;49.358;11.140;2022-11-24T09:01:46;9.93;;;3.03;;
11960;SDS011;6040;49.358;11.140;2022-11-24T09:04:14;11.70;;;2.60;;
11960;SDS011;6040;49.358;11.140;2022-11-24T09:06:41;8.27;;;2.57;;
11960;SDS011;6040;49.358;11.140;2022-11-24T09:09:08;6.17;;;2.70;;
11960;SDS011;6040;49.358;11.140;2022-11-24T09:11:35;7.77;;;2.33;;
11960;SDS011;6040;49.358;11.140;2022-11-24T09:14:03;8.87;;;2.23;;
11960;SDS011;6040;49.358;11.140;2022-11-24T09:16:30;10.70;;;2.90;;
11960;SDS011;6040;49.358;11.140;2022-11-24T09:18:57;5.63;;;2.40;;
11960;SDS011;6040;49.358;11.140;2022-11-24T09:21:27;8.27;;;2.30;;
11960;SDS011;6040;49.358;11.140;2022-11-24T09:23:55;12.03;;;2.67;;
11960;SDS011;6040;49.358;11.140;2022-11-24T09:26:23;7.83;;;2.70;;
11960;SDS011;6040;49.358;11.140;2022-11-24T09:28:51;7.57;;;2.47;;
11960;SDS011;6040;49.358;11.140;2022-11-24T09:31:20;7.83;;;2.83;;
11960;SDS011;6040;49.358;11.140;2022-11-24T09:33:48;15.20;;;2.63;;
11960;SDS011;6040;49.358;11.140;2022-11-24T09:36:16;6.57;;;2.57;;
11960;SDS011;6040;49.358;11.140;2022-11-24T09:38:44;5.97;;;2.50;;
11960;SDS011;6040;49.358;11.140;2022-11-24T09:41:20;7.00;;;2.20;;
11960;SDS011;6040;49.358;11.140;2022-11-24T09:43:55;8.60;;;2.83;;
11960;SDS011;6040;49.358;11.140;2022-11-24T09:46:29;8.53;;;2.67;;
11960;SDS011;6040;49.358;11.140;2022-11-24T09:49:01;8.10;;;2.50;;
11960;SDS011;6040;49.358;11.140;2022-11-24T09:51:30;7.23;;;2.70;;
11960;SDS011;6040;49.358;11.140;2022-11-24T09:54:00;8.30;;;2.70;;
11960;SDS011;6040;49.358;11.140;2022-11-24T09:56:35;5.57;;;2.30;;
11960;SDS011;6040;49.358;11.140;2022-11-24T09:59:06;6.33;;;2.23;;
11960;SDS011;6040;49.358;11.140;2022-11-24T10:01:40;11.40;;;2.93;;
11960;SDS011;6040;49.358;11.140;2022-11-24T10:04:11;8.07;;;2.40;;
11960;SDS011;6040;49.358;11.140;2022-11-24T10:06:43;3.97;;;2.40;;
11960;SDS011;6040;49.358;11.140;2022-11-24T10:09:18;9.20;;;2.67;;
11960;SDS011;6040;49.358;11.140;2022-11-24T10:12:10;4.50;;;2.27;;
11960;SDS011;6040;49.358;11.140;2022-11-24T10:14:50;7.23;;;2.17;;
11960;SDS011;6040;49.358;11.140;2022-11-24T10:17:28;4.67;;;2.17;;
11960;SDS011;6040;49.358;11.140;2022-11-24T10:20:04;7.07;;;2.33;;
11960;SDS011;6040;49.358;11.140;2022-11-24T10:22:38;6.67;;;2.50;;
11960;SDS011;6040;49.358;11.140;2022-11-24T10:25:15;8.37;;;2.50;;
11960;SDS011;6040;49.358;11.140;2022-11-24T10:27:47;5.97;;;2.30;;
11960;SDS011;6040;49.358;11.140;2022-11-24T10:30:18;8.00;;;2.27;;
11960;SDS011;6040;49.358;11.140;2022-11-24T10:32:48;7.13;;;2.73;;
11960;SDS011;6040;49.358;11.140;2022-11-24T10:35:19;5.17;;;2.10;;
11960;SDS011;6040;49.358;11.140;2022-11-24T10:37:54;6.60;;;2.10;;
11960;SDS011;6040;49.358;11.140;2022-11-24T10:40:32;5.23;;;1.97;;
11960;SDS011;6040;49.358;11.140;2022-11-24T10:43:02;4.83;;;2.17;;
11960;SDS011;6040;49.358;11.140;2022-11-24T10:45:34;6.80;;;2.23;;
11960;SDS011;6040;49.358;11.140;2022-11-24T10:48:03;6.33;;;2.43;;
11960;SDS011;6040;49.358;11.140;2022-11-24T10:50:34;6.30;;;2.10;;
11960;SDS011;6040;49.358;11.140;2022-11-24T10:53:03;6.73;;;2.37;;
11960;SDS011;6040;49.358;11.140;2022-11-24T10:55:57;5.23;;;2.20;;
11960;SDS011;6040;49.358;11.140;2022-11-24T10:58:25;11.33;;;5.70;;
11960;SDS011;6040;49.358;11.140;2022-11-24T11:00:55;8.20;;;4.30;;
11960;SDS011;6040;49.358;11.140;2022-11-24T11:03:24;8.33;;;3.00;;
11960;SDS011;6040;49.358;11.140;2022-11-24T11:05:52;7.40;;;2.73;;
11960;SDS011;6040;49.358;11.140;2022-11-24T11:08:23;5.67;;;2.30;;
11960;SDS011;6040;49.358;11.140;2022-11-24T11:13:48;9.83;;;2.40;;
11960;SDS011;6040;49.358;11.140;2022-11-24T11:16:29;11.80;;;3.27;;
11960;SDS011;6040;49.358;11.140;2022-11-24T11:18:59;6.27;;;2.40;;
11960;SDS011;6040;49.358;11.140;2022-11-24T11:21:30;7.00;;;2.43;;
11960;SDS011;6040;49.358;11.140;2022-11-24T11:23:58;5.07;;;2.57;;
11960;SDS011;6040;49.358;11.140;2022-11-24T11:26:30;8.17;;;3.20;;
11960;SDS011;6040;49.358;11.140;2022-11-24T11:29:01;6.17;;;3.10;;
11960;SDS011;6040;49.358;11.140;2022-11-24T11:31:37;8.03;;;2.60;;
11960;SDS011;6040;49.358;11.140;2022-11-24T11:34:11;9.60;;;2.80;;
11960;SDS011;6040;49.358;11.140;2022-11-24T11:36:40;6.13;;;2.80;;
11960;SDS011;6040;49.358;11.140;2022-11-24T11:39:14;8.10;;;2.97;;
11960;SDS011;6040;49.358;11.140;2022-11-24T11:41:48;5.60;;;2.40;;
11960;SDS011;6040;49.358;11.140;2022-11-24T11:44:24;7.77;;;2.90;;
11960;SDS011;6040;49.358;11.140;2022-11-24T11:46:57;5.60;;;1.73;;
11960;SDS011;6040;49.358;11.140;2022-11-24T11:49:24;5.73;;;2.10;;
11960;SDS011;6040;49.358;11.140;2022-11-24T11:51:57;4.30;;;1.97;;
11960;SDS011;6040;49.358;11.140;2022-11-24T11:54:36;10.27;;;4.30;;
11960;SDS011;6040;49.358;11.140;2022-11-24T11:57:17;5.97;;;3.40;;
11960;SDS011;6040;49.358;11.140;2022-11-24T11:59:56;2.83;;;1.87;;
11960;SDS011;6040;49.358;11.140;2022-11-24T12:02:49;5.60;;;2.30;;
11960;SDS011;6040;49.358;11.140;2022-11-24T12:05:50;7.57;;;2.47;;
11960;SDS011;6040;49.358;11.140;2022-11-24T12:08:30;5.73;;;2.27;;
11960;SDS011;6040;49.358;11.140;2022-11-24T12:11:08;2.63;;;2.00;;
11960;SDS011;6040;49.358;11.140;2022-11-24T12:13:49;3.63;;;2.20;;
11960;SDS011;6040;49.358;11.140;2022-11-24T12:16:38;5.83;;;2.23;;
11960;SDS011;6040;49.358;11.140;2022-11-24T12:19:18;8.23;;;2.40;;
11960;SDS011;6040;49.358;11.140;2022-11-24T12:21:58;6.13;;;2.53;;
11960;SDS011;6040;49.358;11.140;2022-11-24T12:24:34;5.13;;;2.23;;
11960;SDS011;6040;49.358;11.140;2022-11-24T12:27:09;6.07;;;2.50;;
11960;SDS011;6040;49.358;11.140;2022-11-24T12:29:50;7.83;;;2.73;;
11960;SDS011;6040;49.358;11.140;2022-11-24T12:35:27;6.77;;;2.67;;
11960;SDS011;6040;49.358;11.140;2022-11-24T12:37:59;5.67;;;2.87;;
11960;SDS011;6040;49.358;11.140;2022-11-24T12:40:44;8.90;;;2.57;;
11960;SDS011;6040;49.358;11.140;2022-11-24T12:43:24;5.70;;;2.97;;
11960;SDS011;6040;49.358;11.140;2022-11-24T12:46:00;4.37;;;2.20;;
11960;SDS011;6040;49.358;11.140;2022-11-24T12:48:37;4.87;;;2.33;;
11960;SDS011;6040;49.358;11.140;2022-11-24T12:51:15;3.97;;;2.20;;
11960;SDS011;6040;49.358;11.140;2022-11-24T12:53:44;7.60;;;2.20;;
11960;SDS011;6040;49.358;11.140;2022-11-24T12:56:13;2.80;;;1.60;;
11960;SDS011;6040;49.358;11.140;2022-11-24T12:58:43;7.80;;;2.33;;
11960;SDS011;6040;49.358;11.140;2022-11-24T13:01:20;4.63;;;1.87;;
11960;SDS011;6040;49.358;11.140;2022-11-24T13:03:57;6.03;;;1.97;;
11960;SDS011;6040;49.358;11.140;2022-11-24T13:06:34;4.33;;;2.03;;
11960;SDS011;6040;49.358;11.140;2022-11-24T13:09:10;6.70;;;2.23;;
11960;SDS011;6040;49.358;11.140;2022-11-24T13:11:40;7.70;;;2.40;;
11960;SDS011;6040;49.358;11.140;2022-11-24T13:14:11;4.37;;;1.70;;
11960;SDS011;6040;49.358;11.140;2022-11-24T13:16:48;5.73;;;1.80;;
11960;SDS011;6040;49.358;11.140;2022-11-24T13:19:21;6.80;;;2.00;;
11960;SDS011;6040;49.358;11.140;2022-11-24T13:21:54;4.40;;;1.80;;
11960;SDS011;6040;49.358;11.140;2022-11-24T13:24:27;4.10;;;1.60;;
11960;SDS011;6040;49.358;11.140;2022-11-24T13:29:51;4.90;;;1.70;;
11960;SDS011;6040;49.358;11.140;2022-11-24T13:35:27;7.17;;;2.00;;
11960;SDS011;6040;49.358;11.140;2022-11-24T13:37:54;6.03;;;1.90;;
11960;SDS011;6040;49.358;11.140;2022-11-24T13:40:41;6.63;;;2.10;;
11960;SDS011;6040;49.358;11.140;2022-11-24T13:43:18;4.20;;;1.50;;
11960;SDS011;6040;49.358;11.140;2022-11-24T13:45:47;6.53;;;1.77;;
11960;SDS011;6040;49.358;11.140;2022-11-24T13:51:19;6.83;;;1.73;;
11960;SDS011;6040;49.358;11.140;2022-11-24T13:53:48;3.97;;;1.70;;
11960;SDS011;6040;49.358;11.140;2022-11-24T13:56:21;5.20;;;1.60;;
11960;SDS011;6040;49.358;11.140;2022-11-24T13:58:51;4.40;;;1.50;;
11960;SDS011;6040;49.358;11.140;2022-11-24T14:01:21;5.93;;;1.87;;
11960;SDS011;6040;49.358;11.140;2022-11-24T14:06:52;4.17;;;1.40;;
11960;SDS011;6040;49.358;11.140;2022-11-24T14:09:24;5.37;;;1.70;;
11960;SDS011;6040;49.358;11.140;2022-11-24T14:12:01;7.20;;;2.03;;
11960;SDS011;6040;49.358;11.140;2022-11-24T14:14:32;5.23;;;1.80;;
11960;SDS011;6040;49.358;11.140;2022-11-24T14:19:48;5.07;;;1.83;;
11960;SDS011;6040;49.358;11.140;2022-11-24T14:22:18;6.93;;;1.70;;
11960;SDS011;6040;49.358;11.140;2022-11-24T14:24:53;6.80;;;1.90;;
11960;SDS011;6040;49.358;11.140;2022-11-24T14:27:23;6.03;;;1.90;;
11960;SDS011;6040;49.358;11.140;2022-11-24T14:29:54;5.90;;;2.20;;
11960;SDS011;6040;49.358;11.140;2022-11-24T14:32:22;6.27;;;2.17;;
11960;SDS011;6040;49.358;11.140;2022-11-24T14:34:49;4.20;;;1.63;;
11960;SDS011;6040;49.358;11.140;2022-11-24T14:37:17;6.17;;;1.90;;
11960;SDS011;6040;49.358;11.140;2022-11-24T14:39:44;4.50;;;2.00;;
11960;SDS011;6040;49.358;11.140;2022-11-24T14:42:18;10.73;;;1.77;;
11960;SDS011;6040;49.358;11.140;2022-11-24T14:44:50;6.40;;;1.80;;
11960;SDS011;6040;49.358;11.140;2022-11-24T14:47:26;4.43;;;1.53;;
11960;SDS011;6040;49.358;11.140;2022-11-24T14:49:55;8.57;;;2.27;;
11960;SDS011;6040;49.358;11.140;2022-11-24T14:52:25;3.97;;;1.60;;
11960;SDS011;6040;49.358;11.140;2022-11-24T14:54:53;3.87;;;1.60;;
11960;SDS011;6040;49.358;11.140;2022-11-24T14:57:23;3.97;;;1.70;;
11960;SDS011;6040;49.358;11.140;2022-11-24T15:00:05;3.37;;;1.63;;
11960;SDS011;6040;49.358;11.140;2022-11-24T15:02:43;5.40;;;1.87;;
11960;SDS011;6040;49.358;11.140;2022-11-24T15:05:12;3.93;;;1.80;;
11960;SDS011;6040;49.358;11.140;2022-11-24T15:07:41;3.63;;;1.43;;
11960;SDS011;6040;49.358;11.140;2022-11-24T15:10:17;5.17;;;1.93;;
11960;SDS011;6040;49.358;11.140;2022-11-24T15:12:48;3.43;;;1.70;;
11960;SDS011;6040;49.358;11.140;2022-11-24T15:15:18;6.40;;;2.00;;
11960;SDS011;6040;49.358;11.140;2022-11-24T15:17:48;4.83;;;1.93;;
11960;SDS011;6040;49.358;11.140;2022-11-24T15:20:18;7.37;;;1.80;;